sensor_id;sensor_type;location;lat;lon;timestamp;P1;durP1;ratioP1;P2;durP2;ratioP2
22470;SDS011;11402;51.374;6.594;2023-06-10T00:01:32;7.80;;;5.93;;
22470;SDS011;11402;51.374;6.594;2023-06-10T00:04:01;6.72;;;5.63;;
22470;SDS011;11402;51.374;6.594;2023-06-10T00:06:27;9.20;;;6.43;;
22470;SDS011;11402;51.374;6.594;2023-06-10T00:08:53;10.52;;;5.65;;
22470;SDS011;11402;51.374;6.594;2023-06-10T00:11:19;6.88;;;5.88;;
22470;SDS011;11402;51.374;6.594;2023-06-10T00:13:46;9.18;;;6.20;;
22470;SDS011;11402;51.374;6.594;2023-06-10T00:16:12;9.88;;;5.93;;
22470;SDS011;11402;51.374;6.594;2023-06-10T00:18:37;8.32;;;5.95;;
22470;SDS011;11402;51.374;6.594;2023-06-10T00:21:04;6.97;;;5.78;;
22470;SDS011;11402;51.374;6.594;2023-06-10T00:23:30;7.60;;;5.55;;
22470;SDS011;11402;51.374;6.594;2023-06-10T00:28:29;8.02;;;5.82;;
22470;SDS011;11402;51.374;6.594;2023-06-10T00:30:55;7.65;;;5.97;;
22470;SDS011;11402;51.374;6.594;2023-06-10T00:33:20;7.13;;;5.97;;
22470;SDS011;11402;51.374;6.594;2023-06-10T00:35:46;6.65;;;5.72;;
22470;SDS011;11402;51.374;6.594;2023-06-10T00:38:13;7.53;;;6.30;;
22470;SDS011;11402;51.374;6.594;2023-06-10T00:40:39;8.95;;;5.93;;
22470;SDS011;11402;51.374;6.594;2023-06-10T00:43:08;7.13;;;5.88;;
22470;SDS011;11402;51.374;6.594;2023-06-10T00:45:34;8.50;;;6.15;;
22470;SDS011;11402;51.374;6.594;2023-06-10T00:48:00;9.45;;;6.35;;
22470;SDS011;11402;51.374;6.594;2023-06-10T00:50:26;6.85;;;6.13;;
22470;SDS011;11402;51.374;6.594;2023-06-10T00:52:53;7.40;;;6.05;;
22470;SDS011;11402;51.374;6.594;2023-06-10T00:55:19;8.25;;;6.07;;
22470;SDS011;11402;51.374;6.594;2023-06-10T00:57:46;7.88;;;6.20;;
22470;SDS011;11402;51.374;6.594;2023-06-10T01:00:13;7.18;;;6.00;;
22470;SDS011;11402;51.374;6.594;2023-06-10T01:02:40;7.95;;;6.07;;
22470;SDS011;11402;51.374;6.594;2023-06-10T01:05:06;8.60;;;5.90;;
22470;SDS011;11402;51.374;6.594;2023-06-10T01:07:36;10.68;;;5.95;;
22470;SDS011;11402;51.374;6.594;2023-06-10T01:10:28;10.32;;;6.03;;
22470;SDS011;11402;51.374;6.594;2023-06-10T01:13:05;8.55;;;6.40;;
22470;SDS011;11402;51.374;6.594;2023-06-10T01:15:33;10.57;;;6.47;;
22470;SDS011;11402;51.374;6.594;2023-06-10T01:18:03;7.60;;;6.72;;
22470;SDS011;11402;51.374;6.594;2023-06-10T01:20:33;6.78;;;6.00;;
22470;SDS011;11402;51.374;6.594;2023-06-10T01:22:59;8.05;;;6.75;;
22470;SDS011;11402;51.374;6.594;2023-06-10T01:25:28;11.20;;;7.22;;
22470;SDS011;11402;51.374;6.594;2023-06-10T01:28:05;9.25;;;7.00;;
22470;SDS011;11402;51.374;6.594;2023-06-10T01:33:59;8.32;;;7.35;;
22470;SDS011;11402;51.374;6.594;2023-06-10T01:36:26;8.18;;;7.05;;
22470;SDS011;11402;51.374;6.594;2023-06-10T01:38:52;8.98;;;6.95;;
22470;SDS011;11402;51.374;6.594;2023-06-10T01:41:20;10.70;;;7.25;;
22470;SDS011;11402;51.374;6.594;2023-06-10T01:43:47;8.80;;;7.20;;
22470;SDS011;11402;51.374;6.594;2023-06-10T01:46:13;10.02;;;7.20;;
22470;SDS011;11402;51.374;6.594;2023-06-10T01:48:41;12.07;;;7.28;;
22470;SDS011;11402;51.374;6.594;2023-06-10T01:51:07;10.50;;;7.20;;
22470;SDS011;11402;51.374;6.594;2023-06-10T01:53:32;10.35;;;7.35;;
22470;SDS011;11402;51.374;6.594;2023-06-10T01:55:58;8.40;;;6.93;;
22470;SDS011;11402;51.374;6.594;2023-06-10T01:58:23;8.65;;;7.22;;
22470;SDS011;11402;51.374;6.594;2023-06-10T02:00:49;11.20;;;7.22;;
22470;SDS011;11402;51.374;6.594;2023-06-10T02:03:15;9.77;;;7.60;;
22470;SDS011;11402;51.374;6.594;2023-06-10T02:05:40;9.85;;;7.88;;
22470;SDS011;11402;51.374;6.594;2023-06-10T02:08:06;9.80;;;7.25;;
22470;SDS011;11402;51.374;6.594;2023-06-10T02:10:32;9.23;;;7.47;;
22470;SDS011;11402;51.374;6.594;2023-06-10T02:12:57;9.13;;;7.32;;
22470;SDS011;11402;51.374;6.594;2023-06-10T02:15:23;11.07;;;7.90;;
22470;SDS011;11402;51.374;6.594;2023-06-10T02:17:49;8.57;;;7.68;;
22470;SDS011;11402;51.374;6.594;2023-06-10T02:20:15;7.93;;;7.15;;
22470;SDS011;11402;51.374;6.594;2023-06-10T02:22:41;9.05;;;7.57;;
22470;SDS011;11402;51.374;6.594;2023-06-10T02:25:07;9.55;;;8.25;;
22470;SDS011;11402;51.374;6.594;2023-06-10T02:27:33;9.82;;;7.85;;
22470;SDS011;11402;51.374;6.594;2023-06-10T02:29:58;8.60;;;7.70;;
22470;SDS011;11402;51.374;6.594;2023-06-10T02:32:24;9.63;;;8.23;;
22470;SDS011;11402;51.374;6.594;2023-06-10T02:34:50;12.85;;;8.43;;
22470;SDS011;11402;51.374;6.594;2023-06-10T02:37:16;9.07;;;8.13;;
22470;SDS011;11402;51.374;6.594;2023-06-10T02:39:42;14.70;;;8.07;;
22470;SDS011;11402;51.374;6.594;2023-06-10T02:42:07;9.40;;;8.02;;
22470;SDS011;11402;51.374;6.594;2023-06-10T02:44:33;10.38;;;8.30;;
22470;SDS011;11402;51.374;6.594;2023-06-10T02:46:59;9.20;;;8.20;;
22470;SDS011;11402;51.374;6.594;2023-06-10T02:49:25;9.85;;;8.23;;
22470;SDS011;11402;51.374;6.594;2023-06-10T02:51:53;13.32;;;8.73;;
22470;SDS011;11402;51.374;6.594;2023-06-10T02:54:25;12.68;;;9.10;;
22470;SDS011;11402;51.374;6.594;2023-06-10T02:56:51;12.35;;;8.90;;
22470;SDS011;11402;51.374;6.594;2023-06-10T02:59:17;10.85;;;8.98;;
22470;SDS011;11402;51.374;6.594;2023-06-10T03:01:43;9.48;;;8.48;;
22470;SDS011;11402;51.374;6.594;2023-06-10T03:04:08;11.13;;;8.75;;
22470;SDS011;11402;51.374;6.594;2023-06-10T03:06:34;10.00;;;9.00;;
22470;SDS011;11402;51.374;6.594;2023-06-10T03:09:00;9.50;;;8.50;;
22470;SDS011;11402;51.374;6.594;2023-06-10T03:11:26;10.30;;;8.85;;
22470;SDS011;11402;51.374;6.594;2023-06-10T03:13:52;11.32;;;9.55;;
22470;SDS011;11402;51.374;6.594;2023-06-10T03:16:20;9.65;;;8.60;;
22470;SDS011;11402;51.374;6.594;2023-06-10T03:18:46;10.95;;;8.75;;
22470;SDS011;11402;51.374;6.594;2023-06-10T03:21:12;10.43;;;8.63;;
22470;SDS011;11402;51.374;6.594;2023-06-10T03:23:37;9.55;;;8.65;;
22470;SDS011;11402;51.374;6.594;2023-06-10T03:26:03;12.63;;;9.50;;
22470;SDS011;11402;51.374;6.594;2023-06-10T03:28:30;11.85;;;8.93;;
22470;SDS011;11402;51.374;6.594;2023-06-10T03:30:56;11.77;;;9.18;;
22470;SDS011;11402;51.374;6.594;2023-06-10T03:33:21;11.82;;;9.15;;
22470;SDS011;11402;51.374;6.594;2023-06-10T03:35:47;13.27;;;9.35;;
22470;SDS011;11402;51.374;6.594;2023-06-10T03:38:13;12.38;;;9.32;;
22470;SDS011;11402;51.374;6.594;2023-06-10T03:40:38;10.80;;;9.05;;
22470;SDS011;11402;51.374;6.594;2023-06-10T03:43:04;15.52;;;9.98;;
22470;SDS011;11402;51.374;6.594;2023-06-10T03:45:30;11.77;;;9.05;;
22470;SDS011;11402;51.374;6.594;2023-06-10T03:47:55;11.43;;;9.23;;
22470;SDS011;11402;51.374;6.594;2023-06-10T03:50:21;11.68;;;9.18;;
22470;SDS011;11402;51.374;6.594;2023-06-10T03:52:48;11.35;;;9.30;;
22470;SDS011;11402;51.374;6.594;2023-06-10T03:55:14;10.48;;;9.20;;
22470;SDS011;11402;51.374;6.594;2023-06-10T03:57:42;11.00;;;9.20;;
22470;SDS011;11402;51.374;6.594;2023-06-10T04:00:08;10.77;;;9.52;;
22470;SDS011;11402;51.374;6.594;2023-06-10T04:02:37;12.57;;;9.75;;
22470;SDS011;11402;51.374;6.594;2023-06-10T04:05:15;14.10;;;9.75;;
22470;SDS011;11402;51.374;6.594;2023-06-10T04:07:42;12.45;;;9.57;;
22470;SDS011;11402;51.374;6.594;2023-06-10T04:10:09;10.60;;;9.52;;
22470;SDS011;11402;51.374;6.594;2023-06-10T04:12:37;15.18;;;10.10;;
22470;SDS011;11402;51.374;6.594;2023-06-10T04:15:03;13.63;;;10.35;;
22470;SDS011;11402;51.374;6.594;2023-06-10T04:17:30;13.38;;;10.43;;
22470;SDS011;11402;51.374;6.594;2023-06-10T04:19:56;17.23;;;10.95;;
22470;SDS011;11402;51.374;6.594;2023-06-10T04:22:21;13.05;;;10.23;;
22470;SDS011;11402;51.374;6.594;2023-06-10T04:24:47;11.60;;;10.38;;
22470;SDS011;11402;51.374;6.594;2023-06-10T04:27:16;11.27;;;10.07;;
22470;SDS011;11402;51.374;6.594;2023-06-10T04:29:42;12.82;;;10.98;;
22470;SDS011;11402;51.374;6.594;2023-06-10T04:32:07;13.95;;;10.70;;
22470;SDS011;11402;51.374;6.594;2023-06-10T04:34:33;13.00;;;11.30;;
22470;SDS011;11402;51.374;6.594;2023-06-10T04:36:59;13.98;;;11.38;;
22470;SDS011;11402;51.374;6.594;2023-06-10T04:39:25;15.32;;;11.27;;
22470;SDS011;11402;51.374;6.594;2023-06-10T04:41:51;15.43;;;10.85;;
22470;SDS011;11402;51.374;6.594;2023-06-10T04:44:16;15.90;;;11.48;;
22470;SDS011;11402;51.374;6.594;2023-06-10T04:46:42;16.73;;;11.77;;
22470;SDS011;11402;51.374;6.594;2023-06-10T04:49:07;14.82;;;11.93;;
22470;SDS011;11402;51.374;6.594;2023-06-10T04:51:33;15.88;;;11.80;;
22470;SDS011;11402;51.374;6.594;2023-06-10T04:53:59;15.38;;;11.25;;
22470;SDS011;11402;51.374;6.594;2023-06-10T04:56:28;13.35;;;11.73;;
22470;SDS011;11402;51.374;6.594;2023-06-10T04:58:55;14.68;;;11.45;;
22470;SDS011;11402;51.374;6.594;2023-06-10T05:01:24;14.07;;;11.88;;
22470;SDS011;11402;51.374;6.594;2023-06-10T05:03:50;12.82;;;11.45;;
22470;SDS011;11402;51.374;6.594;2023-06-10T05:06:15;22.02;;;11.50;;
22470;SDS011;11402;51.374;6.594;2023-06-10T05:08:41;15.32;;;11.80;;
22470;SDS011;11402;51.374;6.594;2023-06-10T05:11:07;15.93;;;11.90;;
22470;SDS011;11402;51.374;6.594;2023-06-10T05:13:32;16.30;;;11.75;;
22470;SDS011;11402;51.374;6.594;2023-06-10T05:15:58;14.60;;;11.98;;
22470;SDS011;11402;51.374;6.594;2023-06-10T05:18:23;16.77;;;12.02;;
22470;SDS011;11402;51.374;6.594;2023-06-10T05:20:49;20.83;;;12.68;;
22470;SDS011;11402;51.374;6.594;2023-06-10T05:23:15;15.18;;;12.77;;
22470;SDS011;11402;51.374;6.594;2023-06-10T05:25:40;14.80;;;12.40;;
22470;SDS011;11402;51.374;6.594;2023-06-10T05:28:07;17.30;;;11.80;;
22470;SDS011;11402;51.374;6.594;2023-06-10T05:30:35;14.88;;;12.02;;
22470;SDS011;11402;51.374;6.594;2023-06-10T05:33:01;17.35;;;12.70;;
22470;SDS011;11402;51.374;6.594;2023-06-10T05:35:27;17.63;;;12.00;;
22470;SDS011;11402;51.374;6.594;2023-06-10T05:37:53;14.75;;;11.07;;
22470;SDS011;11402;51.374;6.594;2023-06-10T05:40:19;14.65;;;11.80;;
22470;SDS011;11402;51.374;6.594;2023-06-10T05:42:44;14.80;;;11.95;;
22470;SDS011;11402;51.374;6.594;2023-06-10T05:45:10;13.45;;;11.57;;
22470;SDS011;11402;51.374;6.594;2023-06-10T05:47:35;17.75;;;12.27;;
22470;SDS011;11402;51.374;6.594;2023-06-10T05:50:01;20.25;;;12.52;;
22470;SDS011;11402;51.374;6.594;2023-06-10T05:52:27;18.63;;;12.18;;
22470;SDS011;11402;51.374;6.594;2023-06-10T05:54:53;16.52;;;12.15;;
22470;SDS011;11402;51.374;6.594;2023-06-10T05:57:19;14.07;;;11.68;;
22470;SDS011;11402;51.374;6.594;2023-06-10T05:59:45;18.20;;;11.88;;
22470;SDS011;11402;51.374;6.594;2023-06-10T06:02:10;14.95;;;11.93;;
22470;SDS011;11402;51.374;6.594;2023-06-10T06:04:36;17.52;;;11.88;;
22470;SDS011;11402;51.374;6.594;2023-06-10T06:07:01;15.55;;;11.73;;
22470;SDS011;11402;51.374;6.594;2023-06-10T06:09:28;13.63;;;10.40;;
22470;SDS011;11402;51.374;6.594;2023-06-10T06:11:53;14.85;;;11.52;;
22470;SDS011;11402;51.374;6.594;2023-06-10T06:14:19;15.80;;;10.85;;
22470;SDS011;11402;51.374;6.594;2023-06-10T06:16:44;15.80;;;10.63;;
22470;SDS011;11402;51.374;6.594;2023-06-10T06:19:10;13.73;;;10.35;;
22470;SDS011;11402;51.374;6.594;2023-06-10T06:21:37;14.55;;;10.45;;
22470;SDS011;11402;51.374;6.594;2023-06-10T06:24:03;14.45;;;10.40;;
22470;SDS011;11402;51.374;6.594;2023-06-10T06:26:29;14.25;;;10.35;;
22470;SDS011;11402;51.374;6.594;2023-06-10T06:28:54;18.73;;;10.82;;
22470;SDS011;11402;51.374;6.594;2023-06-10T06:31:20;14.93;;;8.95;;
22470;SDS011;11402;51.374;6.594;2023-06-10T06:33:45;12.50;;;8.95;;
22470;SDS011;11402;51.374;6.594;2023-06-10T06:36:11;14.80;;;9.73;;
22470;SDS011;11402;51.374;6.594;2023-06-10T06:38:36;14.02;;;9.65;;
22470;SDS011;11402;51.374;6.594;2023-06-10T06:41:02;12.38;;;9.43;;
22470;SDS011;11402;51.374;6.594;2023-06-10T06:43:30;12.32;;;8.70;;
22470;SDS011;11402;51.374;6.594;2023-06-10T06:45:56;16.15;;;8.40;;
22470;SDS011;11402;51.374;6.594;2023-06-10T06:48:22;11.25;;;9.10;;
22470;SDS011;11402;51.374;6.594;2023-06-10T06:50:48;13.40;;;8.75;;
22470;SDS011;11402;51.374;6.594;2023-06-10T06:53:14;12.50;;;8.68;;
22470;SDS011;11402;51.374;6.594;2023-06-10T06:55:40;13.05;;;8.65;;
22470;SDS011;11402;51.374;6.594;2023-06-10T06:58:05;11.38;;;8.68;;
22470;SDS011;11402;51.374;6.594;2023-06-10T07:00:31;14.65;;;8.50;;
22470;SDS011;11402;51.374;6.594;2023-06-10T07:02:57;12.45;;;8.25;;
22470;SDS011;11402;51.374;6.594;2023-06-10T07:05:23;9.65;;;7.65;;
22470;SDS011;11402;51.374;6.594;2023-06-10T07:07:52;8.80;;;7.72;;
22470;SDS011;11402;51.374;6.594;2023-06-10T07:10:20;13.45;;;8.10;;
22470;SDS011;11402;51.374;6.594;2023-06-10T07:12:47;14.50;;;7.93;;
22470;SDS011;11402;51.374;6.594;2023-06-10T07:15:13;10.73;;;8.27;;
22470;SDS011;11402;51.374;6.594;2023-06-10T07:17:38;13.20;;;7.57;;
22470;SDS011;11402;51.374;6.594;2023-06-10T07:20:04;14.88;;;8.05;;
22470;SDS011;11402;51.374;6.594;2023-06-10T07:22:30;10.68;;;7.78;;
22470;SDS011;11402;51.374;6.594;2023-06-10T07:24:56;10.35;;;7.07;;
22470;SDS011;11402;51.374;6.594;2023-06-10T07:27:22;11.10;;;7.40;;
22470;SDS011;11402;51.374;6.594;2023-06-10T07:29:47;13.07;;;7.70;;
22470;SDS011;11402;51.374;6.594;2023-06-10T07:32:13;9.00;;;7.03;;
22470;SDS011;11402;51.374;6.594;2023-06-10T07:34:39;14.20;;;8.13;;
22470;SDS011;11402;51.374;6.594;2023-06-10T07:37:04;11.25;;;7.28;;
22470;SDS011;11402;51.374;6.594;2023-06-10T07:39:30;10.60;;;6.95;;
22470;SDS011;11402;51.374;6.594;2023-06-10T07:41:56;13.32;;;7.30;;
22470;SDS011;11402;51.374;6.594;2023-06-10T07:44:22;8.82;;;6.53;;
22470;SDS011;11402;51.374;6.594;2023-06-10T07:46:48;10.55;;;6.97;;
22470;SDS011;11402;51.374;6.594;2023-06-10T07:49:14;10.18;;;6.68;;
22470;SDS011;11402;51.374;6.594;2023-06-10T07:51:39;10.55;;;6.75;;
22470;SDS011;11402;51.374;6.594;2023-06-10T07:54:05;11.32;;;6.85;;
22470;SDS011;11402;51.374;6.594;2023-06-10T07:56:31;11.77;;;6.30;;
22470;SDS011;11402;51.374;6.594;2023-06-10T07:58:56;9.00;;;6.35;;
22470;SDS011;11402;51.374;6.594;2023-06-10T08:01:22;11.00;;;6.75;;
22470;SDS011;11402;51.374;6.594;2023-06-10T08:03:49;12.02;;;6.90;;
22470;SDS011;11402;51.374;6.594;2023-06-10T08:06:15;8.77;;;6.00;;
22470;SDS011;11402;51.374;6.594;2023-06-10T08:08:42;9.98;;;6.28;;
22470;SDS011;11402;51.374;6.594;2023-06-10T08:11:09;20.92;;;6.57;;
22470;SDS011;11402;51.374;6.594;2023-06-10T08:13:38;34.97;;;8.07;;
22470;SDS011;11402;51.374;6.594;2023-06-10T08:16:04;11.63;;;6.38;;
22470;SDS011;11402;51.374;6.594;2023-06-10T08:18:30;9.35;;;6.28;;
22470;SDS011;11402;51.374;6.594;2023-06-10T08:20:56;9.45;;;6.10;;
22470;SDS011;11402;51.374;6.594;2023-06-10T08:23:21;7.40;;;6.15;;
22470;SDS011;11402;51.374;6.594;2023-06-10T08:25:47;10.75;;;5.97;;
22470;SDS011;11402;51.374;6.594;2023-06-10T08:28:13;19.85;;;7.03;;
22470;SDS011;11402;51.374;6.594;2023-06-10T08:30:38;8.60;;;6.63;;
22470;SDS011;11402;51.374;6.594;2023-06-10T08:33:04;11.32;;;6.35;;
22470;SDS011;11402;51.374;6.594;2023-06-10T08:35:30;13.98;;;6.82;;
22470;SDS011;11402;51.374;6.594;2023-06-10T08:37:55;15.32;;;6.45;;
22470;SDS011;11402;51.374;6.594;2023-06-10T08:40:21;10.98;;;6.53;;
22470;SDS011;11402;51.374;6.594;2023-06-10T08:43:00;11.73;;;6.60;;
22470;SDS011;11402;51.374;6.594;2023-06-10T08:45:31;13.48;;;6.35;;
22470;SDS011;11402;51.374;6.594;2023-06-10T08:47:57;13.00;;;6.32;;
22470;SDS011;11402;51.374;6.594;2023-06-10T08:50:24;10.90;;;6.80;;
22470;SDS011;11402;51.374;6.594;2023-06-10T08:52:54;7.88;;;6.03;;
22470;SDS011;11402;51.374;6.594;2023-06-10T08:55:27;13.27;;;6.97;;
22470;SDS011;11402;51.374;6.594;2023-06-10T08:57:57;10.52;;;6.57;;
22470;SDS011;11402;51.374;6.594;2023-06-10T09:00:26;10.70;;;6.03;;
22470;SDS011;11402;51.374;6.594;2023-06-10T09:02:53;11.50;;;6.43;;
22470;SDS011;11402;51.374;6.594;2023-06-10T09:05:20;10.85;;;6.47;;
22470;SDS011;11402;51.374;6.594;2023-06-10T09:07:47;8.88;;;6.38;;
22470;SDS011;11402;51.374;6.594;2023-06-10T09:10:13;9.85;;;6.18;;
22470;SDS011;11402;51.374;6.594;2023-06-10T09:12:39;10.20;;;6.28;;
22470;SDS011;11402;51.374;6.594;2023-06-10T09:15:06;12.05;;;6.28;;
22470;SDS011;11402;51.374;6.594;2023-06-10T09:17:32;14.95;;;6.65;;
22470;SDS011;11402;51.374;6.594;2023-06-10T09:19:59;10.32;;;6.50;;
22470;SDS011;11402;51.374;6.594;2023-06-10T09:22:25;11.23;;;5.80;;
22470;SDS011;11402;51.374;6.594;2023-06-10T09:24:51;9.30;;;6.10;;
22470;SDS011;11402;51.374;6.594;2023-06-10T09:27:29;8.57;;;6.00;;
22470;SDS011;11402;51.374;6.594;2023-06-10T09:29:56;9.63;;;6.00;;
22470;SDS011;11402;51.374;6.594;2023-06-10T09:32:23;12.82;;;6.43;;
22470;SDS011;11402;51.374;6.594;2023-06-10T09:34:50;7.07;;;6.03;;
22470;SDS011;11402;51.374;6.594;2023-06-10T09:37:25;7.68;;;5.65;;
22470;SDS011;11402;51.374;6.594;2023-06-10T09:40:00;8.80;;;5.90;;
22470;SDS011;11402;51.374;6.594;2023-06-10T09:42:28;9.20;;;6.00;;
22470;SDS011;11402;51.374;6.594;2023-06-10T09:44:58;8.70;;;5.63;;
22470;SDS011;11402;51.374;6.594;2023-06-10T09:47:24;11.48;;;6.38;;
22470;SDS011;11402;51.374;6.594;2023-06-10T09:49:50;8.35;;;6.07;;
22470;SDS011;11402;51.374;6.594;2023-06-10T09:52:24;10.50;;;6.40;;
22470;SDS011;11402;51.374;6.594;2023-06-10T09:57:17;8.77;;;5.82;;
22470;SDS011;11402;51.374;6.594;2023-06-10T09:59:44;12.70;;;6.28;;
22470;SDS011;11402;51.374;6.594;2023-06-10T10:02:14;7.72;;;5.65;;
22470;SDS011;11402;51.374;6.594;2023-06-10T10:04:44;12.38;;;5.90;;
22470;SDS011;11402;51.374;6.594;2023-06-10T10:07:10;7.88;;;5.88;;
22470;SDS011;11402;51.374;6.594;2023-06-10T10:09:37;8.10;;;6.07;;
22470;SDS011;11402;51.374;6.594;2023-06-10T10:12:04;16.23;;;6.75;;
22470;SDS011;11402;51.374;6.594;2023-06-10T10:14:43;13.25;;;5.95;;
22470;SDS011;11402;51.374;6.594;2023-06-10T10:17:12;10.23;;;6.07;;
22470;SDS011;11402;51.374;6.594;2023-06-10T10:19:43;11.18;;;6.40;;
22470;SDS011;11402;51.374;6.594;2023-06-10T10:22:20;12.38;;;6.10;;
22470;SDS011;11402;51.374;6.594;2023-06-10T10:24:57;9.48;;;5.80;;
22470;SDS011;11402;51.374;6.594;2023-06-10T10:27:27;9.60;;;6.10;;
22470;SDS011;11402;51.374;6.594;2023-06-10T10:29:56;10.52;;;5.82;;
22470;SDS011;11402;51.374;6.594;2023-06-10T10:32:35;9.48;;;5.72;;
22470;SDS011;11402;51.374;6.594;2023-06-10T10:37:48;7.78;;;6.15;;
22470;SDS011;11402;51.374;6.594;2023-06-10T10:40:14;8.82;;;5.60;;
22470;SDS011;11402;51.374;6.594;2023-06-10T10:42:41;7.85;;;5.82;;
22470;SDS011;11402;51.374;6.594;2023-06-10T10:45:07;10.82;;;5.88;;
22470;SDS011;11402;51.374;6.594;2023-06-10T10:47:34;7.03;;;5.50;;
22470;SDS011;11402;51.374;6.594;2023-06-10T10:50:12;10.68;;;6.10;;
22470;SDS011;11402;51.374;6.594;2023-06-10T10:52:51;9.93;;;5.68;;
22470;SDS011;11402;51.374;6.594;2023-06-10T10:55:21;13.55;;;5.97;;
22470;SDS011;11402;51.374;6.594;2023-06-10T11:00:31;8.02;;;5.60;;
22470;SDS011;11402;51.374;6.594;2023-06-10T11:02:58;11.40;;;5.60;;
22470;SDS011;11402;51.374;6.594;2023-06-10T11:05:39;9.85;;;5.60;;
22470;SDS011;11402;51.374;6.594;2023-06-10T11:08:14;10.00;;;5.78;;
22470;SDS011;11402;51.374;6.594;2023-06-10T11:11:00;6.93;;;5.70;;
22470;SDS011;11402;51.374;6.594;2023-06-10T11:13:26;7.90;;;5.70;;
22470;SDS011;11402;51.374;6.594;2023-06-10T11:15:53;7.80;;;5.25;;
22470;SDS011;11402;51.374;6.594;2023-06-10T11:18:23;7.93;;;5.88;;
22470;SDS011;11402;51.374;6.594;2023-06-10T11:20:54;9.23;;;5.60;;
22470;SDS011;11402;51.374;6.594;2023-06-10T11:26:11;11.93;;;5.90;;
22470;SDS011;11402;51.374;6.594;2023-06-10T11:31:21;9.18;;;5.85;;
22470;SDS011;11402;51.374;6.594;2023-06-10T11:33:55;8.13;;;5.60;;
22470;SDS011;11402;51.374;6.594;2023-06-10T11:36:22;9.13;;;5.82;;
22470;SDS011;11402;51.374;6.594;2023-06-10T11:38:49;9.95;;;5.95;;
22470;SDS011;11402;51.374;6.594;2023-06-10T11:41:17;10.90;;;5.65;;
22470;SDS011;11402;51.374;6.594;2023-06-10T11:43:43;8.15;;;5.72;;
22470;SDS011;11402;51.374;6.594;2023-06-10T11:46:13;10.07;;;5.88;;
22470;SDS011;11402;51.374;6.594;2023-06-10T11:48:39;10.55;;;6.05;;
22470;SDS011;11402;51.374;6.594;2023-06-10T11:51:26;7.28;;;5.80;;
22470;SDS011;11402;51.374;6.594;2023-06-10T11:53:53;9.80;;;5.60;;
22470;SDS011;11402;51.374;6.594;2023-06-10T11:56:20;6.90;;;5.65;;
22470;SDS011;11402;51.374;6.594;2023-06-10T11:58:57;9.32;;;5.63;;
22470;SDS011;11402;51.374;6.594;2023-06-10T12:01:31;7.40;;;5.93;;
22470;SDS011;11402;51.374;6.594;2023-06-10T12:04:01;6.80;;;5.40;;
22470;SDS011;11402;51.374;6.594;2023-06-10T12:09:27;7.60;;;5.35;;
22470;SDS011;11402;51.374;6.594;2023-06-10T12:11:58;6.65;;;5.50;;
22470;SDS011;11402;51.374;6.594;2023-06-10T12:20:01;9.57;;;5.53;;
22470;SDS011;11402;51.374;6.594;2023-06-10T12:22:41;11.90;;;5.75;;
22470;SDS011;11402;51.374;6.594;2023-06-10T12:25:08;9.93;;;5.50;;
22470;SDS011;11402;51.374;6.594;2023-06-10T12:27:35;6.70;;;5.70;;
22470;SDS011;11402;51.374;6.594;2023-06-10T12:30:02;9.23;;;5.75;;
22470;SDS011;11402;51.374;6.594;2023-06-10T12:32:39;6.85;;;5.82;;
22470;SDS011;11402;51.374;6.594;2023-06-10T12:35:06;9.85;;;5.82;;
22470;SDS011;11402;51.374;6.594;2023-06-10T12:37:32;7.43;;;5.55;;
22470;SDS011;11402;51.374;6.594;2023-06-10T12:40:02;11.05;;;6.00;;
22470;SDS011;11402;51.374;6.594;2023-06-10T12:42:29;7.00;;;5.50;;
22470;SDS011;11402;51.374;6.594;2023-06-10T12:44:56;8.05;;;5.55;;
22470;SDS011;11402;51.374;6.594;2023-06-10T12:47:32;7.88;;;5.78;;
22470;SDS011;11402;51.374;6.594;2023-06-10T12:50:03;8.50;;;5.95;;
22470;SDS011;11402;51.374;6.594;2023-06-10T12:52:29;6.70;;;5.57;;
22470;SDS011;11402;51.374;6.594;2023-06-10T12:54:55;9.10;;;5.72;;
22470;SDS011;11402;51.374;6.594;2023-06-10T12:57:21;7.22;;;5.45;;
22470;SDS011;11402;51.374;6.594;2023-06-10T12:59:47;6.15;;;5.40;;
22470;SDS011;11402;51.374;6.594;2023-06-10T13:02:22;10.82;;;5.93;;
22470;SDS011;11402;51.374;6.594;2023-06-10T13:04:49;14.70;;;5.68;;
22470;SDS011;11402;51.374;6.594;2023-06-10T13:07:17;7.63;;;6.10;;
22470;SDS011;11402;51.374;6.594;2023-06-10T13:09:43;8.02;;;5.72;;
22470;SDS011;11402;51.374;6.594;2023-06-10T13:12:10;10.38;;;5.65;;
22470;SDS011;11402;51.374;6.594;2023-06-10T13:14:36;7.13;;;5.72;;
22470;SDS011;11402;51.374;6.594;2023-06-10T13:17:03;6.10;;;5.45;;
22470;SDS011;11402;51.374;6.594;2023-06-10T13:19:31;7.30;;;5.88;;
22470;SDS011;11402;51.374;6.594;2023-06-10T13:21:58;9.43;;;6.10;;
22470;SDS011;11402;51.374;6.594;2023-06-10T13:24:23;8.10;;;6.05;;
22470;SDS011;11402;51.374;6.594;2023-06-10T13:26:49;6.57;;;5.88;;
22470;SDS011;11402;51.374;6.594;2023-06-10T13:29:15;11.18;;;6.38;;
22470;SDS011;11402;51.374;6.594;2023-06-10T13:31:40;8.65;;;6.25;;
22470;SDS011;11402;51.374;6.594;2023-06-10T13:34:07;9.60;;;5.95;;
22470;SDS011;11402;51.374;6.594;2023-06-10T13:36:32;7.40;;;5.90;;
22470;SDS011;11402;51.374;6.594;2023-06-10T13:38:58;7.63;;;5.80;;
22470;SDS011;11402;51.374;6.594;2023-06-10T13:41:24;11.75;;;6.00;;
22470;SDS011;11402;51.374;6.594;2023-06-10T13:43:49;7.28;;;5.65;;
22470;SDS011;11402;51.374;6.594;2023-06-10T13:46:15;10.57;;;5.85;;
22470;SDS011;11402;51.374;6.594;2023-06-10T13:48:41;9.10;;;6.35;;
22470;SDS011;11402;51.374;6.594;2023-06-10T13:51:06;7.95;;;5.80;;
22470;SDS011;11402;51.374;6.594;2023-06-10T13:53:34;8.32;;;5.78;;
22470;SDS011;11402;51.374;6.594;2023-06-10T13:55:59;7.97;;;5.68;;
22470;SDS011;11402;51.374;6.594;2023-06-10T13:58:25;6.63;;;5.55;;
22470;SDS011;11402;51.374;6.594;2023-06-10T14:00:50;8.40;;;5.88;;
22470;SDS011;11402;51.374;6.594;2023-06-10T14:03:16;7.45;;;5.65;;
22470;SDS011;11402;51.374;6.594;2023-06-10T14:05:42;9.30;;;5.82;;
22470;SDS011;11402;51.374;6.594;2023-06-10T14:08:07;7.20;;;6.00;;
22470;SDS011;11402;51.374;6.594;2023-06-10T14:10:33;8.20;;;5.95;;
22470;SDS011;11402;51.374;6.594;2023-06-10T14:12:58;6.70;;;5.75;;
22470;SDS011;11402;51.374;6.594;2023-06-10T14:15:25;6.78;;;5.85;;
22470;SDS011;11402;51.374;6.594;2023-06-10T14:17:51;7.78;;;5.38;;
22470;SDS011;11402;51.374;6.594;2023-06-10T14:20:16;7.63;;;5.82;;
22470;SDS011;11402;51.374;6.594;2023-06-10T14:22:42;9.48;;;5.93;;
22470;SDS011;11402;51.374;6.594;2023-06-10T14:25:08;8.18;;;6.03;;
22470;SDS011;11402;51.374;6.594;2023-06-10T14:27:33;9.45;;;6.60;;
22470;SDS011;11402;51.374;6.594;2023-06-10T14:29:59;7.40;;;5.63;;
22470;SDS011;11402;51.374;6.594;2023-06-10T14:32:24;7.45;;;5.50;;
22470;SDS011;11402;51.374;6.594;2023-06-10T14:34:50;8.43;;;6.07;;
22470;SDS011;11402;51.374;6.594;2023-06-10T14:37:15;7.70;;;6.03;;
22470;SDS011;11402;51.374;6.594;2023-06-10T14:39:41;8.82;;;6.05;;
22470;SDS011;11402;51.374;6.594;2023-06-10T14:42:07;9.35;;;5.70;;
22470;SDS011;11402;51.374;6.594;2023-06-10T14:44:32;7.30;;;5.35;;
22470;SDS011;11402;51.374;6.594;2023-06-10T14:46:58;7.93;;;5.60;;
22470;SDS011;11402;51.374;6.594;2023-06-10T14:49:23;7.30;;;5.50;;
22470;SDS011;11402;51.374;6.594;2023-06-10T14:51:49;9.80;;;5.78;;
22470;SDS011;11402;51.374;6.594;2023-06-10T14:54:15;7.68;;;6.07;;
22470;SDS011;11402;51.374;6.594;2023-06-10T14:56:40;10.75;;;5.93;;
22470;SDS011;11402;51.374;6.594;2023-06-10T14:59:06;10.57;;;5.90;;
22470;SDS011;11402;51.374;6.594;2023-06-10T15:01:32;6.90;;;6.20;;
22470;SDS011;11402;51.374;6.594;2023-06-10T15:03:57;8.45;;;5.63;;
22470;SDS011;11402;51.374;6.594;2023-06-10T15:06:23;8.82;;;5.80;;